Date,TemperatureHighF,TemperatureAvgF,TemperatureLowF,DewpointHighF,DewpointAvgF,DewpointLowF,HumidityHigh,HumidityAvg,HumidityLow,PressureMaxIn,PressureMinIn,WindSpeedMaxMPH,WindSpeedAvgMPH,GustSpeedMaxMPH,PrecipitationSumIn
2014-1-1,1.6,-6.3,-23.4,-4.0,-10.8,-28.0,84,81,74,30.64,30.52,8,1,10,0.00
2014-1-2,4.7,-8.0,-23.2,-2.0,-12.6,-28.0,86,80,69,30.55,30.49,9,1,9,0.00
2014-1-3,16.4,1.0,-24.8,14.0,-4.1,-29.0,89,79,67,30.49,29.62,13,5,21,0.00
2014-1-4,22.2,12.6,-3.2,21.0,9.0,-7.0,94,85,75,30.20,29.54,12,4,19,0.00
2014-1-5,-2.5,-11.0,-19.3,-7.0,-16.4,-25.0,83,77,67,30.38,30.19,8,2,11,0.00
2014-1-6,-17.4,-22.1,-29.1,-25.0,-27.9,-34.0,77,74,68,30.26,30.20,14,6,19,0.00
2014-1-7,-3.9,-16.0,-25.2,-11.0,-21.0,-30.0,83,78,69,30.37,30.20,11,4,16,0.00
2014-1-8,3.3,-15.0,-29.2,-6.0,-20.5,-34.0,87,76,65,30.61,30.38,8,1,9,0.00
2014-1-9,13.8,-6.6,-30.4,12.0,-11.8,-35.0,92,78,59,30.61,30.14,10,3,16,0.00
2014-1-10,24.6,20.5,13.7,23.0,19.1,12.0,96,94,92,30.13,29.51,9,3,12,0.00
2014-1-11,27.5,25.1,23.0,26.0,23.7,22.0,96,94,90,29.68,29.45,13,3,16,0.00
2014-1-12,35.7,28.4,21.5,29.0,25.2,20.0,96,88,76,29.68,29.43,10,3,18,0.08
2014-1-13,29.8,26.6,21.3,28.0,21.9,16.0,94,83,68,29.68,29.48,11,3,18,0.00
2014-1-14,21.0,16.6,10.4,17.0,13.0,6.0,90,85,79,30.03,29.60,19,8,25,0.00
2014-1-15,10.4,7.2,4.8,8.0,3.1,0.0,89,83,74,30.08,29.52,12,5,19,0.00
2014-1-16,26.2,14.5,6.2,25.0,12.0,3.0,94,89,83,29.75,29.40,12,3,18,0.00
2014-1-17,15.2,10.6,-1.6,11.0,7.3,-5.0,91,86,80,30.01,29.75,11,4,18,0.00
2014-1-18,19.7,8.4,-6.2,12.0,4.3,-10.0,90,83,70,29.94,29.73,12,2,14,0.00
2014-1-19,26.5,20.3,10.9,24.0,17.7,7.0,92,89,83,29.72,29.48,14,5,19,0.00
2014-1-20,11.0,4.0,-5.3,8.0,-1.1,-10.0,88,79,70,30.41,29.72,13,6,20,0.00
2014-1-21,3.1,-5.5,-13.3,-6.0,-11.2,-17.0,84,77,63,30.46,30.13,8,2,14,0.00
2014-1-22,0.0,-2.1,-4.5,-5.0,-7.0,-10.0,85,80,70,30.37,29.97,12,4,21,0.00
2014-1-23,0.9,-6.4,-13.4,-8.0,-12.1,-18.0,85,77,62,30.69,30.33,12,4,19,0.00
2014-1-24,23.6,10.6,-12.7,21.0,6.7,-17.0,92,84,70,30.31,29.43,14,6,23,0.00
2014-1-25,16.0,2.0,-2.9,10.0,-4.5,-11.0,88,74,62,29.80,29.48,13,4,22,0.00
2014-1-26,5.5,0.4,-5.0,1.0,-4.2,-10.0,85,81,70,29.94,29.38,15,4,19,0.00
2014-1-27,-5.3,-12.6,-18.7,-10.0,-19.3,-24.0,82,72,63,30.40,29.95,12,5,19,0.00
2014-1-28,-3.4,-12.5,-21.7,-13.0,-18.8,-26.0,80,74,62,30.41,30.13,14,6,18,0.00
2014-1-29,20.4,5.4,-8.7,11.0,-3.4,-14.0,80,68,55,30.12,29.68,25,6,25,0.00
2014-1-30,23.1,15.7,-1.2,20.0,11.2,-7.0,93,83,67,29.96,29.57,12,3,16,0.00
2014-1-31,4.6,-4.8,-13.9,-4.0,-10.6,-18.0,83,76,65,30.20,29.97,9,2,14,0.00
2014-2-1,13.7,1.1,-16.2,5.0,-4.2,-20.0,91,78,67,30.22,30.04,7,1,11,0.00
2014-2-2,9.4,-1.5,-16.3,0.0,-7.6,-20.0,90,76,57,30.36,30.23,8,1,13,0.00
2014-2-3,17.6,1.0,-17.6,11.0,-3.9,-22.0,89,80,70,30.43,30.28,8,1,13,0.00
2014-2-4,15.9,0.8,-18.5,3.0,-5.8,-23.0,87,75,57,30.53,30.44,10,1,11,0.03
2014-2-5,6.7,3.2,-3.0,3.0,-1.5,-7.0,86,81,74,30.50,30.44,12,4,15,0.00
2014-2-6,2.8,-4.4,-10.8,-6.0,-9.8,-15.0,85,78,66,30.45,30.26,14,4,18,0.00
2014-2-7,9.6,-0.4,-8.0,-3.0,-7.6,-12.0,84,73,53,30.27,30.18,15,5,19,0.00
2014-2-8,16.1,2.9,-15.5,5.0,-3.3,-20.0,90,76,59,30.27,30.18,7,1,11,0.00
2014-2-9,7.3,0.1,-13.2,0.0,-6.0,-20.0,89,76,61,30.38,30.19,9,2,12,0.00
2014-2-10,4.5,-7.3,-19.6,-7.0,-13.9,-24.0,85,73,58,30.57,30.39,10,2,12,0.00
2014-2-11,14.2,-4.3,-28.4,-1.0,-14.4,-99.9,79,65,48,30.59,30.23,14,-7,18,0.00
2014-2-12,19.8,10.1,4.0,13.0,6.0,1.0,92,83,73,30.25,29.97,9,2,14,0.00
2014-2-13,21.6,15.3,8.0,20.0,12.9,6.0,93,90,86,29.96,29.48,12,3,19,0.00
2014-2-14,15.3,6.6,-12.0,9.0,1.9,-16.0,87,81,68,30.08,29.68,10,4,15,0.00
2014-2-15,19.5,4.5,-17.9,12.0,-0.8,-22.0,91,79,55,30.10,29.97,7,1,11,0.01
2014-2-16,18.9,10.4,-2.2,11.0,4.2,-6.0,91,77,59,30.32,30.07,10,2,12,0.00
2014-2-17,22.0,17.4,11.8,20.0,14.5,5.0,94,88,73,30.25,29.77,15,4,20,0.00
2014-2-18,36.6,26.0,17.0,27.0,21.5,15.0,94,84,68,29.85,29.59,9,2,16,0.14
2014-2-19,40.0,26.2,6.4,27.0,18.6,4.0,95,75,48,29.87,29.69,8,2,16,0.13
2014-2-20,35.5,31.0,25.1,31.0,26.5,19.0,97,84,67,29.85,28.98,15,5,26,0.03
2014-2-21,29.7,14.8,7.1,29.0,13.0,5.0,97,92,89,29.66,28.95,22,9,28,0.00
2014-2-22,13.6,7.4,2.5,9.0,3.8,-1.0,89,85,78,30.05,29.67,19,8,29,0.00
2014-2-23,14.2,6.5,-2.0,6.0,0.7,-5.0,86,77,65,30.20,30.06,18,7,25,0.00
2014-2-24,13.4,6.1,-0.3,3.0,-0.6,-5.0,82,74,62,30.30,30.19,11,4,18,0.00
2014-2-25,5.2,-0.4,-7.5,-2.0,-7.7,-13.0,81,72,61,30.29,30.19,10,4,18,0.00
2014-2-26,8.0,-2.5,-12.4,4.0,-8.2,-18.0,87,76,68,30.28,29.61,23,6,24,0.00
2014-2-27,0.0,-8.5,-24.3,-8.0,-17.0,-31.0,83,67,44,30.25,29.83,12,3,20,0.00
2014-2-28,7.2,-4.2,-26.8,3.0,-11.2,-32.0,84,73,46,30.24,30.05,10,2,14,0.00
2014-3-1,4.1,-1.6,-9.9,-1.0,-9.6,-21.0,84,70,55,30.53,30.21,10,3,18,0.00
2014-3-2,5.9,-5.9,-16.2,-10.0,-18.4,-25.0,76,56,41,30.58,30.49,10,2,18,0.00
2014-3-3,11.2,-5.6,-31.4,1.0,-14.0,-37.0,85,69,44,30.62,30.40,9,1,13,0.00
2014-3-4,18.5,8.7,2.7,7.0,2.6,-3.0,86,77,59,30.42,30.26,6,1,9,0.05
2014-3-5,19.5,6.8,-15.4,1.0,-4.1,-20.0,87,64,41,30.62,30.42,5,1,11,0.00
2014-3-6,25.7,15.8,2.6,17.0,8.9,-5.0,87,74,63,30.51,29.95,13,5,18,0.00
2014-3-7,28.8,24.6,17.6,27.0,20.9,13.0,91,85,76,30.19,29.84,15,5,23,0.00
2014-3-8,28.7,18.7,12.5,14.0,10.5,4.0,87,72,49,30.34,30.19,12,3,13,0.00
2014-3-9,39.5,26.5,11.9,30.0,19.6,6.0,86,76,62,30.19,29.68,13,4,19,0.00
2014-3-10,52.9,40.3,27.8,36.0,29.8,26.0,95,70,39,29.69,29.54,11,4,19,0.00
2014-3-11,41.0,35.9,27.7,30.0,25.9,20.0,77,67,59,29.95,29.65,14,4,20,0.00
2014-3-12,27.4,14.8,2.4,22.0,3.4,-5.0,85,62,37,30.15,29.93,13,6,25,0.00
2014-3-13,39.3,23.5,-1.1,32.0,15.4,-6.0,84,72,62,30.11,29.58,8,3,15,0.00
2014-3-14,40.1,34.3,24.8,33.0,28.9,19.0,91,81,61,29.86,29.45,14,5,20,0.00
2014-3-15,24.7,18.9,4.7,19.0,9.2,-3.0,81,67,50,30.51,29.87,14,6,21,0.00
2014-3-16,23.9,9.0,-8.9,2.0,-4.0,-13.0,85,60,32,30.58,30.16,8,2,10,0.00
2014-3-17,22.6,17.7,13.1,20.0,12.3,-1.0,91,80,51,30.16,29.77,14,4,16,0.00
2014-3-18,33.4,27.0,20.7,29.0,22.8,17.0,96,84,74,29.90,29.82,14,5,15,0.09
2014-3-19,29.5,28.2,27.3,29.0,25.9,22.0,96,91,80,29.94,29.76,12,4,15,0.07
2014-3-20,38.9,29.4,19.9,23.0,19.9,16.0,86,69,41,30.04,29.94,7,2,13,0.02
2014-3-21,38.6,28.5,12.8,30.0,23.8,11.0,97,83,56,30.01,29.76,14,3,21,0.00
2014-3-22,30.0,16.1,6.9,28.0,9.8,1.0,91,76,60,30.47,29.98,14,6,24,0.00
2014-3-23,18.9,8.5,-7.3,3.0,-1.1,-12.0,88,67,44,30.53,30.42,10,2,15,0.00
2014-3-24,24.4,10.6,-9.3,16.0,2.5,-13.0,83,71,52,30.42,30.09,18,4,22,0.00
2014-3-25,16.8,11.5,4.4,9.0,0.6,-4.0,79,63,46,30.23,30.08,12,5,24,0.00
2014-3-26,29.0,15.7,-7.1,20.0,5.6,-11.0,86,66,49,30.26,29.84,11,4,24,0.00
2014-3-27,35.6,31.8,26.9,34.0,28.9,20.0,97,89,70,29.83,29.55,13,3,16,0.08
2014-3-28,33.7,27.5,21.8,24.0,21.8,19.0,92,80,62,30.27,29.66,15,5,24,0.28
2014-3-29,41.6,30.3,16.2,25.0,21.3,14.0,92,71,51,30.33,30.19,10,1,10,0.01
2014-3-30,51.9,40.7,29.9,34.0,29.1,22.0,79,64,51,30.20,29.93,16,4,19,0.00
2014-3-31,50.9,43.1,38.2,39.0,34.9,31.0,83,73,62,29.94,29.45,9,4,18,0.00
2014-4-1,48.6,27.9,18.9,39.0,22.1,13.0,92,79,66,30.09,29.41,19,6,28,0.00
2014-4-2,40.6,28.3,13.7,23.0,17.1,11.0,90,65,37,30.27,30.10,7,1,13,0.00
2014-4-3,34.3,30.6,28.3,28.0,21.0,14.0,95,69,51,30.20,29.82,15,6,19,0.00
2014-4-4,29.6,27.2,23.1,27.0,25.7,21.0,96,94,90,30.01,29.61,21,8,25,0.00
2014-4-5,42.9,28.1,4.0,32.0,20.9,1.0,94,76,52,30.17,30.02,11,2,15,0.41
2014-4-6,55.4,43.4,33.4,38.0,31.9,27.0,89,65,49,30.06,29.82,12,3,19,0.00
2014-4-7,55.0,39.2,27.7,44.0,33.2,26.0,98,81,43,29.87,29.70,10,1,19,0.00
2014-4-8,45.5,36.3,24.2,33.0,27.7,23.0,95,74,49,29.98,29.74,14,3,23,0.00
2014-4-9,57.9,41.7,21.5,35.0,27.9,20.0,94,62,37,29.97,29.50,14,4,21,0.00
2014-4-10,53.2,47.3,30.0,41.0,26.9,15.0,84,49,22,29.90,29.48,23,5,28,0.02
2014-4-11,53.8,37.7,25.2,40.0,29.9,23.0,94,76,41,30.02,29.89,14,2,15,0.08
2014-4-12,45.2,38.4,32.2,38.0,34.7,29.0,96,87,71,30.03,29.78,19,5,26,0.28
2014-4-13,42.5,36.5,29.2,38.0,34.5,28.0,97,92,81,29.88,29.78,19,6,25,0.01
2014-4-14,29.1,28.7,28.3,28.0,27.6,27.0,95,95,95,29.84,29.82,14,11,23,0.00
2014-4-15,31.4,22.8,12.4,14.0,8.6,2.0,87,58,30,30.20,30.09,9,3,15,0.00
2014-4-16,31.7,25.9,18.1,29.0,22.3,12.0,95,86,71,30.25,30.10,19,7,23,0.01
2014-4-17,34.2,31.9,30.4,34.0,30.1,26.0,98,93,80,30.35,30.07,10,3,15,0.21
2014-4-18,42.9,31.8,17.7,26.0,21.4,16.0,96,68,39,30.45,30.34,9,2,12,0.00
2014-4-19,55.9,43.5,31.6,44.0,31.7,23.0,82,64,46,30.39,30.06,18,6,24,0.08
2014-4-20,69.2,55.4,41.4,53.0,45.3,40.0,96,72,36,30.07,29.95,11,2,13,0.05
2014-4-21,67.7,49.6,36.9,55.0,39.1,29.0,98,73,27,29.99,29.79,18,4,27,0.01
2014-4-22,46.0,38.5,28.9,29.0,26.1,24.0,82,62,45,30.14,29.98,14,7,27,0.00
2014-4-23,53.1,40.2,24.9,32.0,25.9,23.0,93,61,33,30.20,30.04,9,2,16,0.00
2014-4-24,40.9,35.0,32.4,36.0,33.0,30.0,96,92,75,30.09,29.72,16,6,20,0.53
2014-4-25,44.7,39.1,31.8,39.0,34.8,30.0,97,85,60,29.95,29.70,14,5,24,0.02
2014-4-26,45.4,37.6,30.1,32.0,29.4,27.0,91,74,53,30.15,29.95,11,6,19,0.00
2014-4-27,38.2,35.8,33.2,33.0,28.2,18.0,90,75,51,30.15,29.92,24,11,30,0.25
2014-4-28,45.8,40.9,38.0,35.0,31.4,28.0,84,69,54,29.95,29.81,30,12,35,0.10
2014-4-29,39.9,35.5,32.4,34.0,32.5,30.0,96,89,68,29.82,29.66,20,10,33,0.16
2014-4-30,46.3,39.3,33.9,45.0,38.4,33.0,98,96,93,29.72,29.68,9,5,12,0.23
2014-5-1,42.2,39.0,35.7,40.0,38.0,35.0,98,96,91,29.80,29.63,10,4,14,0.12
2014-5-2,52.3,43.7,37.7,41.0,38.1,34.0,96,82,51,29.77,29.64,10,3,16,0.00
2014-5-3,51.6,46.7,39.5,40.0,31.7,26.0,90,59,37,29.89,29.63,13,5,20,0.01
2014-5-4,53.7,43.9,32.0,34.0,27.2,22.0,81,54,31,30.07,29.89,14,3,16,0.00
2014-5-5,53.6,45.6,37.5,40.0,36.4,31.0,93,72,51,30.10,29.98,9,2,14,0.06
2014-5-6,58.8,49.0,35.3,41.0,35.5,31.0,92,63,43,30.08,29.92,14,5,21,0.00
2014-5-7,59.2,49.1,42.5,49.0,41.4,29.0,89,75,52,29.97,29.79,16,8,26,0.02
2014-5-8,70.7,56.8,46.7,61.0,52.7,45.0,96,87,61,29.90,29.59,14,4,22,1.13
2014-5-9,60.0,51.8,43.2,59.0,48.6,39.0,98,89,80,29.74,29.45,18,7,27,0.09
2014-5-10,69.7,54.6,39.3,45.0,33.7,24.0,92,53,18,29.90,29.74,8,2,14,0.00
2014-5-11,72.9,62.1,49.0,54.0,49.9,44.0,93,67,39,29.90,29.82,12,2,13,0.06
2014-5-12,72.0,60.8,52.1,61.0,56.7,51.0,97,87,64,29.85,29.64,14,4,18,0.87
2014-5-13,61.6,47.4,41.5,60.0,41.7,37.0,95,81,61,30.11,29.62,15,6,22,0.16
2014-5-14,53.9,45.7,36.4,37.0,31.0,25.0,88,60,33,30.22,30.11,15,5,22,0.00
2014-5-15,43.7,39.6,36.3,33.0,28.5,25.0,78,65,51,30.18,30.07,16,8,25,0.00
2014-5-16,46.6,40.9,35.5,32.0,27.4,23.0,77,60,40,30.10,30.02,15,2,15,0.00
2014-5-17,59.5,48.5,33.3,32.0,27.2,23.0,83,48,26,30.04,29.96,15,3,20,0.00
2014-5-18,69.7,58.2,44.7,35.0,31.9,27.0,55,39,25,30.06,30.00,12,4,18,0.00
2014-5-19,61.5,52.7,47.3,49.0,41.2,34.0,95,68,39,30.07,29.87,14,4,22,0.41
2014-5-20,73.1,58.2,47.7,58.0,51.1,46.0,96,79,47,29.88,29.80,13,2,22,0.26
2014-5-21,61.4,57.2,52.6,54.0,47.7,45.0,94,72,57,30.05,29.79,14,4,16,0.00
2014-5-22,61.6,54.0,47.2,46.0,43.9,41.0,86,70,51,30.19,30.05,12,4,16,0.00
2014-5-23,71.3,57.3,38.2,50.0,41.9,36.0,94,62,31,30.26,30.13,8,1,10,0.00
2014-5-24,79.8,65.3,48.5,50.0,46.3,43.0,93,56,28,30.19,30.03,11,2,15,0.00
2014-5-25,80.6,68.7,50.6,54.0,47.7,43.0,88,50,27,30.07,29.89,14,3,19,0.00
2014-5-26,82.2,70.3,63.2,67.0,60.8,53.0,95,74,51,29.90,29.78,12,2,18,1.17
2014-5-27,64.9,61.3,58.6,62.0,58.7,51.0,97,91,73,29.98,29.84,6,2,9,0.64
2014-5-28,76.6,64.2,53.7,52.0,46.2,39.0,75,55,29,30.09,29.98,8,2,12,0.00
2014-5-29,81.6,66.7,49.0,58.0,50.7,47.0,94,61,30,30.16,30.04,7,1,11,0.00
2014-5-30,85.2,71.2,52.6,60.0,52.3,46.0,92,56,25,30.16,30.06,8,2,13,0.00
2014-5-31,84.7,71.1,62.0,57.0,52.9,49.0,68,54,36,30.10,29.92,9,4,16,0.00
2014-6-1,77.7,68.4,63.3,69.0,63.2,61.0,97,84,59,29.91,29.72,12,3,24,1.60
2014-6-2,75.0,66.5,61.2,65.0,62.3,54.0,97,87,66,29.73,29.54,13,4,24,0.56
2014-6-3,73.0,61.9,52.2,56.0,51.4,47.0,92,71,44,29.86,29.62,16,5,27,0.05
2014-6-4,74.3,64.7,52.9,56.0,51.0,45.0,94,64,35,29.91,29.84,10,2,13,0.00
2014-6-5,76.7,63.7,49.5,61.0,49.7,-99.9,90,67,43,29.93,29.83,11,-8,16,0.00
2014-6-6,80.3,66.1,57.4,62.0,58.0,55.0,95,78,43,29.95,29.86,9,2,14,0.42
2014-6-7,61.8,55.0,50.3,61.0,53.3,49.0,97,94,87,30.04,29.90,15,4,21,0.35
2014-6-8,68.5,57.6,43.2,51.0,44.8,38.0,98,67,37,30.12,30.03,9,2,16,0.00
2014-6-9,65.7,57.8,49.0,55.0,48.2,44.0,92,71,51,30.07,29.98,7,1,10,0.00
2014-6-10,72.3,60.8,47.1,54.0,48.8,46.0,94,68,41,30.01,29.88,10,1,11,0.00
2014-6-11,78.4,65.1,47.9,58.0,51.9,46.0,94,66,40,29.89,29.69,6,1,11,0.00
2014-6-12,64.5,55.9,46.8,57.0,46.8,-99.9,91,78,68,29.84,29.59,19,-5,27,0.02
2014-6-13,70.0,55.8,42.8,49.0,40.1,33.0,90,61,26,30.01,29.85,15,3,19,0.01
2014-6-14,67.2,57.6,47.3,54.0,46.6,36.0,88,67,52,30.04,29.86,13,3,21,0.02
2014-6-15,73.7,61.2,50.1,65.0,54.0,47.0,94,78,54,29.96,29.55,15,5,25,0.74
2014-6-16,83.1,69.5,57.6,63.0,56.5,53.0,87,66,37,29.90,29.58,14,4,26,0.07
2014-6-17,84.3,72.2,58.9,65.0,59.4,55.0,90,66,43,29.87,29.62,12,2,23,0.01
2014-6-18,73.3,66.8,61.8,65.0,60.8,57.0,93,81,68,30.04,29.80,13,5,16,0.09
2014-6-19,71.1,64.4,58.4,63.0,59.6,55.0,94,84,70,30.13,29.93,15,5,30,0.10
2014-6-20,75.5,64.3,57.7,65.0,60.4,57.0,96,88,64,29.99,29.88,8,1,14,0.01
2014-6-21,78.0,67.3,59.9,66.0,59.6,55.0,95,79,46,29.88,29.83,10,3,13,0.00
2014-6-22,80.3,66.9,52.4,66.0,60.3,52.0,98,81,51,29.90,29.78,10,1,12,0.00
2014-6-23,78.6,68.4,63.7,67.0,64.1,62.0,97,87,61,29.82,29.74,6,1,11,0.09
2014-6-24,77.0,67.0,57.2,66.0,60.9,54.0,95,81,59,29.95,29.80,10,3,16,0.03
2014-6-25,66.7,61.3,56.5,61.0,58.2,55.0,96,90,79,30.05,29.93,13,3,15,0.84
2014-6-26,73.9,64.0,53.3,61.0,58.0,52.0,97,82,62,30.07,29.95,8,2,12,0.00
2014-6-27,76.9,65.8,60.1,70.0,62.9,58.0,96,90,77,29.98,29.83,12,2,25,0.98
2014-6-28,83.7,75.5,65.6,71.0,68.6,63.0,95,80,61,29.87,29.70,18,5,24,0.09
2014-6-29,80.5,71.1,63.8,66.0,62.9,59.0,96,77,50,29.73,29.61,14,5,23,0.02
2014-6-30,82.6,70.7,61.5,66.0,61.7,53.0,94,75,37,29.66,29.42,18,5,25,0.00
2014-7-1,69.9,63.3,57.4,63.0,59.1,55.0,93,86,76,29.70,29.40,11,4,20,0.15
2014-7-2,67.1,57.8,50.0,55.0,47.5,40.0,94,72,37,30.06,29.71,15,6,19,0.00
2014-7-3,70.7,59.6,45.9,52.0,46.9,43.0,89,66,40,30.21,30.06,10,2,18,0.00
2014-7-4,76.7,63.7,45.6,55.0,48.3,43.0,92,62,34,30.29,30.13,10,2,14,0.00
2014-7-5,79.7,70.2,60.9,64.0,57.8,52.0,84,66,51,30.14,29.85,12,4,21,0.00
2014-7-6,82.0,70.8,63.8,72.0,65.3,61.0,97,83,61,29.86,29.53,13,4,15,0.04
2014-7-7,77.1,67.6,60.0,64.0,60.5,57.0,93,78,57,29.66,29.52,14,4,26,0.14
2014-7-8,67.3,60.5,57.0,60.0,56.2,52.0,96,86,69,29.82,29.55,13,2,20,0.13
2014-7-9,67.1,59.3,51.7,54.0,50.9,48.0,94,75,53,30.04,29.82,15,4,16,0.07
2014-7-10,78.2,65.5,48.3,63.0,54.6,46.0,93,70,46,30.11,30.00,10,2,15,0.00
2014-7-11,75.1,68.0,62.5,64.0,61.8,59.0,90,81,64,30.05,29.95,15,3,25,0.05
2014-7-12,76.4,68.1,63.1,69.0,64.9,62.0,96,89,76,29.99,29.82,8,2,12,0.27
2014-7-13,70.7,64.0,57.8,62.0,52.5,45.0,96,69,41,29.88,29.78,11,2,19,0.00
2014-7-14,60.6,54.7,50.6,53.0,50.2,47.0,93,85,63,29.94,29.79,8,2,22,0.49
2014-7-15,63.2,55.9,51.2,52.0,49.7,47.0,96,81,57,30.02,29.93,15,6,21,0.02
2014-7-16,71.5,57.5,42.3,53.0,47.0,41.0,97,72,37,30.06,29.98,8,2,13,0.00
2014-7-17,74.6,63.4,49.4,56.0,51.6,47.0,92,68,42,30.05,30.00,9,2,13,0.00
2014-7-18,76.1,67.1,56.6,59.0,55.8,53.0,87,69,50,30.07,29.96,8,3,14,0.00
2014-7-19,75.9,69.1,61.5,63.0,59.8,56.0,83,73,61,29.98,29.88,9,4,18,0.00
2014-7-20,80.0,72.0,65.4,67.0,63.3,59.0,83,74,63,29.90,29.82,11,4,16,0.00
2014-7-21,86.9,76.4,67.7,73.0,68.3,63.0,86,77,60,29.91,29.82,10,3,18,0.00
2014-7-22,77.4,72.8,60.9,73.0,65.4,57.0,89,78,66,30.08,29.72,15,5,23,0.00
2014-7-23,74.2,63.6,52.5,59.0,54.3,50.0,96,74,46,30.20,30.08,12,3,18,0.00
2014-7-24,76.1,64.1,50.5,59.0,53.3,49.0,95,71,45,30.18,29.91,7,1,11,0.00
2014-7-25,70.2,65.4,60.9,64.0,60.4,56.0,92,84,73,29.93,29.78,10,2,13,0.00
2014-7-26,84.4,73.1,64.4,68.0,61.3,52.0,97,71,33,29.80,29.69,11,2,15,0.01
2014-7-27,67.4,60.9,52.9,61.0,57.1,51.0,95,87,72,30.05,29.64,15,4,23,0.90
2014-7-28,70.1,60.1,47.0,57.0,52.3,45.0,95,77,52,30.14,30.05,14,2,21,0.08
2014-7-29,73.8,60.5,53.4,59.0,55.4,52.0,96,84,57,30.06,29.96,16,2,25,0.14
2014-7-30,72.6,61.5,53.2,61.0,54.9,50.0,96,81,49,30.06,29.95,9,2,15,0.01
2014-7-31,77.3,66.2,53.9,63.0,57.3,53.0,98,76,44,29.97,29.93,8,1,15,0.01
2014-8-1,77.5,65.5,54.4,62.0,57.0,53.0,98,77,48,30.08,29.96,9,1,13,0.00
2014-8-2,80.7,66.8,53.2,66.0,59.1,51.0,95,78,52,30.13,30.04,7,1,13,0.00
2014-8-3,81.8,69.0,59.3,66.0,61.4,57.0,95,79,47,30.07,30.00,8,1,15,0.00
2014-8-4,76.5,64.8,59.3,64.0,61.4,58.0,97,89,64,30.07,29.99,7,2,15,0.02
2014-8-5,75.4,65.4,57.9,61.0,57.7,52.0,98,78,51,30.11,30.04,8,1,12,0.01
2014-8-6,76.1,65.5,52.3,64.0,57.3,51.0,95,76,53,30.09,30.03,9,1,11,0.00
2014-8-7,78.2,67.5,56.0,62.0,56.8,53.0,96,72,43,30.11,30.02,8,2,12,0.00
2014-8-8,78.5,67.3,54.0,61.0,54.6,48.0,93,68,35,30.13,30.05,6,1,10,0.00
2014-8-9,79.0,66.8,54.0,64.0,56.3,52.0,95,73,42,30.15,30.06,8,1,12,0.00
2014-8-10,80.1,68.5,55.1,63.0,57.9,53.0,95,72,45,30.10,29.96,6,1,11,0.00
2014-8-11,67.4,61.6,55.9,61.0,58.9,53.0,96,90,77,29.98,29.88,14,6,22,0.74
2014-8-12,71.0,61.4,52.3,57.0,51.9,47.0,95,73,45,29.98,29.92,18,6,25,0.00
2014-8-13,70.1,62.6,51.2,59.0,53.0,45.0,96,73,44,30.11,29.93,12,4,16,0.00
2014-8-14,69.4,57.3,43.1,54.0,45.7,39.0,94,69,39,30.17,30.03,6,1,9,0.00
2014-8-15,78.8,64.2,47.5,64.0,56.1,46.0,96,77,57,30.04,29.82,7,2,13,0.00
2014-8-16,73.7,67.2,59.5,69.0,64.0,58.0,95,89,81,29.95,29.79,11,3,16,0.02
2014-8-17,69.9,61.1,54.4,63.0,57.5,53.0,96,88,72,30.04,29.89,7,2,11,0.09
2014-8-18,71.8,64.2,58.2,68.0,61.8,56.0,96,92,85,29.90,29.62,9,2,10,0.16
2014-8-19,70.8,63.8,59.8,64.0,61.2,58.0,97,91,77,29.77,29.57,11,2,16,0.03
2014-8-20,69.3,62.6,58.0,62.0,59.0,56.0,95,88,73,29.93,29.76,8,2,10,0.00
2014-8-21,70.6,63.0,55.3,67.0,61.7,55.0,98,95,87,29.93,29.86,9,2,15,0.05
2014-8-22,74.4,67.9,64.4,71.0,66.6,64.0,99,96,86,29.99,29.85,7,2,10,0.00
2014-8-23,75.5,69.2,63.9,71.0,67.3,63.0,99,94,85,30.00,29.94,9,3,13,0.00
2014-8-24,79.1,72.0,65.7,72.0,67.9,63.0,94,87,74,29.97,29.83,11,4,25,0.00
2014-8-25,83.4,73.4,63.3,72.0,66.1,57.0,97,79,55,29.95,29.82,15,4,18,0.14
2014-8-26,69.4,60.7,55.1,57.0,52.0,47.0,89,74,52,30.14,29.95,10,1,14,0.00
2014-8-27,70.2,60.0,53.0,55.0,51.8,49.0,93,76,48,30.21,30.11,7,1,12,0.04
2014-8-28,71.6,60.8,47.9,61.0,53.7,46.0,94,79,53,30.16,29.98,8,2,14,0.00
2014-8-29,74.2,63.3,56.6,68.0,61.2,55.0,97,93,81,29.98,29.74,8,2,13,1.04
2014-8-30,63.6,62.1,58.4,63.0,60.4,56.0,98,94,86,29.90,29.71,12,4,13,0.14
2014-8-31,77.3,64.0,49.9,67.0,59.8,49.0,98,87,63,29.92,29.65,10,3,19,0.01
2014-9-1,71.5,64.7,56.4,65.0,59.9,52.0,97,85,58,29.76,29.56,14,4,25,0.45
2014-9-2,73.5,62.2,53.5,56.0,53.1,49.0,95,75,42,29.86,29.76,10,1,13,0.00
2014-9-3,68.6,61.8,55.0,62.0,57.8,53.0,96,87,75,29.90,29.77,20,4,25,1.30
2014-9-4,72.8,66.3,58.5,70.0,64.4,58.0,98,93,80,29.93,29.64,20,4,37,1.98
2014-9-5,70.3,59.5,51.9,69.0,54.7,50.0,96,84,71,30.11,29.73,9,2,18,0.00
2014-9-6,69.5,57.6,47.7,53.0,47.8,42.0,94,73,37,30.14,30.10,11,2,15,0.00
2014-9-7,73.2,61.7,50.4,54.0,50.7,47.0,92,70,41,30.13,30.04,12,3,18,0.00
2014-9-8,67.9,60.6,54.4,58.0,53.7,51.0,89,78,60,30.04,29.88,18,2,18,0.02
2014-9-9,75.5,65.4,56.3,67.0,60.7,54.0,95,85,71,29.91,29.76,10,2,11,0.08
2014-9-10,65.2,49.9,40.3,63.0,47.9,37.0,97,93,87,30.02,29.62,24,10,34,1.91
2014-9-11,48.9,43.5,38.4,41.0,36.8,34.0,91,78,60,30.38,30.02,13,6,20,0.00
2014-9-12,48.6,40.3,33.9,41.0,37.0,32.0,95,88,59,30.45,30.35,5,0,13,0.16
2014-9-13,53.7,44.0,33.0,42.0,35.8,29.0,97,76,45,30.38,30.24,12,2,13,0.01
2014-9-14,60.5,50.7,42.9,46.0,41.6,38.0,91,72,47,30.24,30.04,15,5,22,0.00
2014-9-15,57.8,46.7,38.4,47.0,39.3,35.0,95,78,43,30.19,30.12,12,2,18,0.00
2014-9-16,64.7,50.1,36.3,45.0,39.6,33.0,89,70,44,30.19,30.03,11,2,18,0.00
2014-9-17,69.8,54.1,43.1,53.0,45.7,40.0,92,75,45,30.08,29.93,10,3,14,0.00
2014-9-18,57.2,48.7,44.2,50.0,45.4,42.0,93,89,76,30.17,30.07,9,2,12,0.00
2014-9-19,68.5,59.0,49.4,59.0,52.8,48.0,94,81,62,30.09,29.66,20,6,22,0.00
2014-9-20,70.5,64.5,53.0,64.0,57.8,51.0,95,80,52,29.69,29.61,12,4,20,0.21
2014-9-21,53.6,49.8,40.0,52.0,45.2,38.0,96,84,59,30.19,29.64,21,5,24,0.12
2014-9-22,66.8,51.4,37.9,51.0,45.0,36.0,95,80,53,30.24,30.15,10,2,15,0.00
2014-9-23,73.2,58.6,44.9,54.0,49.5,44.0,97,75,44,30.27,30.18,8,2,12,0.00
2014-9-24,68.0,58.6,53.7,54.0,50.5,48.0,92,75,50,30.25,30.20,9,3,14,0.08
2014-9-25,73.0,60.8,53.0,58.0,53.6,51.0,93,78,53,30.25,30.18,7,2,11,0.01
2014-9-26,76.0,61.4,47.8,56.0,50.8,47.0,96,72,40,30.25,30.17,8,1,13,0.00
2014-9-27,78.0,64.2,51.0,61.0,56.3,50.0,96,77,54,30.20,30.10,8,2,18,0.00
2014-9-28,78.8,65.7,53.9,60.0,56.7,53.0,97,75,49,30.14,29.98,9,2,14,0.00
2014-9-29,61.3,46.8,38.2,57.0,43.8,36.0,96,89,79,30.17,29.96,15,8,23,0.13
2014-9-30,58.3,45.2,37.0,45.0,40.1,35.0,95,83,59,30.16,30.00,10,4,14,0.00
2014-10-1,54.4,48.7,43.2,53.0,46.5,41.0,96,92,86,30.01,29.83,14,3,18,0.10
2014-10-2,62.3,55.4,50.3,57.0,53.4,49.0,98,93,81,29.86,29.61,11,2,18,0.38
2014-10-3,51.8,43.2,32.1,51.0,41.4,31.0,96,93,87,29.66,29.52,20,5,23,0.14
2014-10-4,43.9,37.6,31.8,37.0,33.4,30.0,97,86,64,29.67,29.55,13,3,21,0.27
2014-10-5,46.2,38.6,34.0,33.0,29.6,27.0,87,71,49,29.64,29.50,18,4,21,0.00
2014-10-6,51.9,42.2,33.4,41.0,32.5,25.0,93,72,37,29.51,29.42,15,4,23,0.05
2014-10-7,55.6,45.8,41.0,42.0,33.7,28.0,92,65,40,29.79,29.43,20,4,26,0.00
2014-10-8,48.8,41.3,35.6,31.0,28.5,26.0,76,62,43,30.04,29.78,16,4,21,0.00
2014-10-9,48.6,38.4,30.9,36.0,31.2,27.0,89,76,59,30.22,30.04,12,2,16,0.00
2014-10-10,49.8,39.0,28.0,37.0,30.9,25.0,93,75,52,30.28,30.20,9,1,14,0.00
2014-10-11,53.5,39.1,25.1,35.0,28.6,23.0,91,69,41,30.29,30.09,8,1,9,0.01
2014-10-12,58.2,48.0,39.0,42.0,35.1,30.0,75,63,42,30.08,29.86,16,4,22,0.00
2014-10-13,52.2,48.7,46.3,49.0,46.6,41.0,96,92,73,29.86,29.73,13,3,18,0.34
2014-10-14,52.3,47.6,45.1,46.0,43.8,37.0,95,87,72,29.94,29.71,24,11,34,0.23
2014-10-15,59.7,48.7,38.3,41.0,38.2,36.0,91,69,43,29.97,29.89,15,7,24,0.00
2014-10-16,64.3,48.9,35.4,48.0,41.8,35.0,98,79,45,29.89,29.51,6,2,10,0.00
2014-10-17,50.2,45.8,41.1,45.0,42.5,38.0,94,88,81,29.99,29.47,16,6,23,0.05
2014-10-18,46.5,38.2,31.1,39.0,32.4,28.0,92,81,51,30.23,29.99,13,4,22,0.02
2014-10-19,55.4,43.5,32.2,45.0,37.4,28.0,92,79,67,30.14,29.77,11,3,21,0.01
2014-10-20,48.6,45.1,38.9,43.0,40.7,37.0,95,85,74,30.11,29.78,10,3,15,0.00
2014-10-21,46.5,40.4,31.8,39.0,35.6,30.0,93,83,69,30.29,30.12,11,3,13,0.00
2014-10-22,55.7,42.6,30.2,37.0,31.9,29.0,96,70,38,30.36,30.15,11,3,16,0.01
2014-10-23,48.7,45.4,43.3,46.0,42.4,37.0,97,89,64,30.16,30.00,7,2,13,0.09
2014-10-24,63.3,51.4,44.0,52.0,47.4,44.0,98,87,57,30.03,29.81,11,3,15,0.00
2014-10-25,58.8,51.7,44.0,52.0,33.7,22.0,94,55,25,29.97,29.81,13,5,21,0.00
2014-10-26,58.1,46.2,32.9,34.0,28.5,26.0,77,52,31,30.01,29.74,8,1,14,0.00
2014-10-27,58.9,51.6,44.0,48.0,42.1,29.0,89,72,39,29.74,29.54,10,3,16,0.00
2014-10-28,49.6,42.0,34.4,47.0,38.2,32.0,91,86,81,29.83,29.55,14,6,22,0.05
2014-10-29,41.7,37.2,33.7,35.0,32.8,31.0,93,84,73,30.13,29.83,11,3,15,0.01
2014-10-30,40.9,37.0,29.0,33.0,31.8,26.0,93,82,72,30.20,30.07,14,3,26,0.01
2014-10-31,32.3,28.3,22.2,27.0,22.7,18.0,93,80,68,30.54,30.21,20,9,32,0.00
2014-11-1,41.1,28.5,16.0,23.0,18.3,14.0,92,69,38,30.55,30.33,7,2,11,0.00
2014-11-2,50.2,39.3,29.7,25.0,23.1,21.0,76,54,37,30.33,30.01,13,4,16,0.00
2014-11-3,48.5,43.0,35.7,45.0,33.4,22.0,96,70,50,30.00,29.75,8,3,14,0.14
2014-11-4,45.7,40.1,36.1,45.0,34.3,28.0,96,80,67,29.93,29.71,15,5,21,0.04
2014-11-5,38.2,34.1,30.8,32.0,28.9,25.0,96,82,64,30.06,29.93,10,4,19,0.11
2014-11-6,35.1,32.4,31.0,31.0,30.2,29.0,96,92,84,30.26,29.98,12,4,16,0.04
2014-11-7,34.0,31.7,27.8,31.0,29.6,27.0,96,92,81,30.23,29.68,8,3,16,0.05
2014-11-8,34.5,32.2,29.2,33.0,24.6,16.0,94,75,47,29.93,29.68,19,5,29,0.01
2014-11-9,31.9,28.4,20.4,30.0,21.6,10.0,95,77,43,29.90,29.71,8,2,13,0.04
2014-11-10,28.3,25.1,21.4,26.0,22.4,17.0,95,89,75,29.92,29.70,15,7,23,0.00
2014-11-11,28.4,23.6,18.1,27.0,21.7,16.0,95,92,87,30.16,29.82,21,8,24,0.00
2014-11-12,23.4,18.8,16.0,19.0,16.0,14.0,92,89,79,30.30,30.17,8,3,13,0.02
2014-11-13,22.7,17.8,11.8,19.0,14.6,10.0,93,87,78,30.35,30.29,8,2,13,0.00
2014-11-14,23.0,15.4,4.6,14.0,10.9,1.0,91,82,66,30.41,30.34,7,1,10,0.00
2014-11-15,18.9,8.7,-5.7,12.0,4.8,-9.0,91,84,67,30.40,30.20,7,1,11,0.00
2014-11-16,20.8,15.5,7.1,17.0,11.2,3.0,91,83,66,30.20,29.84,12,4,21,0.00
2014-11-17,10.5,7.5,4.4,6.0,3.2,1.0,89,82,74,29.90,29.80,11,4,18,0.00
2014-11-18,11.7,9.1,6.5,6.0,2.7,1.0,84,75,63,30.01,29.89,12,3,15,0.00
2014-11-19,18.5,14.0,9.7,13.0,9.4,5.0,89,82,72,29.91,29.76,11,3,19,0.00
2014-11-20,11.2,5.6,-8.8,7.0,0.2,-12.0,87,78,69,30.35,29.90,12,2,16,0.00
2014-11-21,26.0,12.5,-10.2,21.0,3.6,-14.0,89,70,45,30.40,30.00,12,2,19,0.00
2014-11-22,35.3,31.3,26.0,35.0,29.7,21.0,97,94,81,30.00,29.67,10,3,16,0.02
2014-11-23,44.3,41.6,35.7,44.0,41.1,35.0,98,98,96,29.66,29.18,9,2,14,0.06
2014-11-24,39.3,28.0,18.8,39.0,27.0,17.0,98,96,92,29.78,29.12,21,5,24,0.10
2014-11-25,20.0,15.6,10.6,18.0,13.3,9.0,93,90,85,30.19,29.79,9,1,12,0.00
2014-11-26,22.0,18.3,13.0,20.0,16.2,10.0,93,91,89,30.36,30.19,9,2,14,0.00
2014-11-27,12.6,3.5,-7.0,10.0,-0.2,-10.0,89,84,75,30.50,30.36,10,2,15,0.00
2014-11-28,17.1,10.5,1.0,15.0,7.7,-2.0,91,88,83,30.41,29.89,8,1,10,0.00
2014-11-29,31.9,26.5,15.2,31.0,25.3,13.0,97,95,91,29.88,29.48,10,2,14,0.07
2014-11-30,29.2,14.0,2.3,29.0,9.7,-3.0,97,83,74,30.41,29.57,13,4,19,0.01
2014-12-1,5.9,-1.3,-8.2,-3.0,-8.5,-13.0,82,72,56,30.80,30.41,8,2,13,0.00
2014-12-2,18.2,11.9,-2.3,15.0,7.7,-9.0,91,83,71,30.61,30.01,11,3,21,0.00
2014-12-3,18.2,12.6,4.8,11.0,7.5,0.0,92,80,62,30.41,29.99,9,2,15,0.00
2014-12-4,22.5,12.8,-5.0,12.0,4.3,-8.0,90,70,50,30.45,30.27,7,1,15,0.00
2014-12-5,27.6,23.5,13.3,26.0,21.1,11.0,95,90,81,30.43,30.21,5,1,10,0.00
2014-12-6,29.9,13.0,-2.8,21.0,8.7,-6.0,93,83,61,30.75,30.43,4,0,6,0.02
2014-12-7,30.8,26.7,22.1,24.0,20.2,15.0,91,77,64,30.72,30.14,12,5,19,0.00
2014-12-8,31.9,28.3,24.6,31.0,27.0,23.0,97,95,91,30.27,29.95,8,4,16,0.01
2014-12-9,26.9,23.1,17.8,26.0,21.1,16.0,95,92,89,30.51,30.27,11,4,14,0.00
2014-12-10,19.8,17.4,15.8,19.0,16.1,14.0,95,94,93,30.51,30.35,4,1,7,0.00
2014-12-11,22.4,19.1,15.4,21.0,17.7,14.0,95,94,93,30.36,30.26,6,3,9,0.00
2014-12-12,30.2,27.6,22.3,30.0,26.9,21.0,98,97,95,30.30,30.18,9,3,11,0.01
2014-12-13,38.6,35.3,29.2,38.0,35.0,29.0,99,98,98,30.18,30.00,9,3,15,0.01
2014-12-14,42.2,40.5,38.1,42.0,40.4,38.0,99,99,99,30.00,29.87,4,0,11,0.01
2014-12-15,43.4,40.8,35.2,43.0,40.8,35.0,100,100,99,29.87,29.74,11,1,13,0.33
2014-12-16,34.3,25.4,18.3,34.0,23.8,15.0,99,93,87,30.20,29.75,19,9,26,0.02
2014-12-17,20.8,17.4,13.2,18.0,14.0,10.0,92,86,79,30.37,30.20,12,2,14,0.00
2014-12-18,21.7,19.8,15.3,19.0,17.4,14.0,93,90,86,30.38,30.32,7,1,10,0.00
2014-12-19,22.7,20.0,14.7,21.0,18.2,13.0,94,92,90,30.36,30.28,4,1,8,0.00
2014-12-20,27.9,25.4,22.1,26.0,23.6,21.0,94,93,90,30.29,30.18,7,2,9,0.00
2014-12-21,32.6,29.9,27.1,32.0,28.8,26.0,97,95,93,30.18,29.86,12,3,13,0.07
2014-12-22,32.9,32.0,30.4,32.0,31.1,29.0,98,96,93,29.87,29.75,14,5,20,0.09
2014-12-23,31.9,30.9,30.1,31.0,29.9,29.0,98,96,93,29.82,29.67,11,5,15,0.05
2014-12-24,31.6,30.4,29.6,30.0,28.9,28.0,96,94,89,29.82,29.56,10,3,15,0.00
2014-12-25,30.5,29.4,27.6,29.0,27.7,27.0,97,93,89,29.96,29.58,10,3,16,0.00
2014-12-26,30.1,28.6,27.2,29.0,27.6,26.0,97,96,93,30.11,29.93,7,3,13,0.00
2014-12-27,27.7,23.0,11.9,27.0,21.8,10.0,97,95,91,30.10,29.94,12,3,15,0.00
2014-12-28,18.0,9.1,-10.3,15.0,6.5,-14.0,92,89,83,30.43,30.08,5,0,10,0.00
2014-12-29,4.4,-6.0,-17.9,0.0,-9.4,-22.0,89,85,79,30.74,30.44,5,1,8,0.00
2014-12-30,2.7,-8.6,-22.2,-3.0,-12.6,-26.0,87,82,74,30.82,30.64,9,1,14,0.00
2014-12-31,6.8,-1.4,-11.3,1.0,-5.6,-15.0,86,82,76,30.64,29.98,12,4,21,0.00
2015-1-1,22.2,13.0,2.2,19.0,9.1,-4.0,91,84,69,30.19,29.86,9,2,13,0.00
2015-1-2,18.9,5.6,-13.9,13.0,-0.8,-18.0,87,76,61,30.33,30.19,6,1,9,0.00